Station Historical Data
Daily Summary for May 30, 2017 Units:  English    Metric   Both
« Previous Day
Next Day »
Daily Weekly Monthly Yearly Custom
  High: Low: Average:
Temperature: 78.0 °F 60.4 °F 67.6 °F
Dew Point: 57.2 °F 46.6 °F 53.4 °F
Humidity: 75 % 41 % 61 %
Wind Speed: 13.0 mph 0.0 mph 2.5 mph
Wind Gust: 14.0 mph - -
Wind:- - SSE
Pressure: 29.86 in 29.82 in -
Precipitation: 0.00 in    
Historical Graphs
 
 
Tabular Data for May 30, 2017
Time Temperature Dew Point Pressure Wind Wind Speed Wind Gust Humidity Rainfall Rate (Hourly) solar
00:02 65.0 °F 56.5 °F 29.86 in ESE 5.0 mph 8.0 mph 74 % 0.00 in 0.00 W/m2
00:03 65.0 °F 56.5 °F 29.86 in ESE 5.0 mph 8.0 mph 74 % 0.00 in 0.00 W/m2
00:08 64.9 °F 56.4 °F 29.86 in ESE 5.0 mph 9.0 mph 74 % 0.00 in 0.00 W/m2
00:13 64.9 °F 56.4 °F 29.86 in ESE 9.0 mph 9.0 mph 74 % 0.00 in 0.00 W/m2
00:18 64.9 °F 56.4 °F 29.86 in ESE 5.0 mph 9.0 mph 74 % 0.00 in 0.00 W/m2
00:23 64.9 °F 56.4 °F 29.86 in East 5.0 mph 9.0 mph 74 % 0.00 in 0.00 W/m2
00:28 64.9 °F 56.8 °F 29.86 in East 6.0 mph 11.0 mph 75 % 0.00 in 0.00 W/m2
00:38 64.9 °F 56.4 °F 29.85 in ESE 4.0 mph 8.0 mph 74 % 0.00 in 0.00 W/m2
00:43 64.9 °F 56.4 °F 29.85 in East 2.0 mph 8.0 mph 74 % 0.00 in 0.00 W/m2
00:48 64.9 °F 56.4 °F 29.85 in East 7.0 mph 11.0 mph 74 % 0.00 in 0.00 W/m2
00:53 64.9 °F 56.0 °F 29.85 in East 8.0 mph 9.0 mph 73 % 0.00 in 0.00 W/m2
00:58 64.9 °F 56.0 °F 29.85 in ESE 4.0 mph 12.0 mph 73 % 0.00 in 0.00 W/m2
01:03 65.0 °F 56.2 °F 29.85 in ESE 2.0 mph 9.0 mph 73 % 0.00 in 0.00 W/m2
01:08 64.9 °F 56.0 °F 29.84 in ESE 2.0 mph 13.0 mph 73 % 0.00 in 0.00 W/m2
01:14 64.9 °F 55.7 °F 29.84 in East 5.0 mph 12.0 mph 72 % 0.00 in 0.00 W/m2
01:19 64.9 °F 55.3 °F 29.84 in East 13.0 mph 13.0 mph 71 % 0.00 in 0.00 W/m2
01:24 64.9 °F 54.9 °F 29.84 in East 5.0 mph 9.0 mph 70 % 0.00 in 0.00 W/m2
01:29 65.0 °F 55.0 °F 29.84 in East 2.0 mph 11.0 mph 70 % 0.00 in 0.00 W/m2
01:34 65.0 °F 55.0 °F 29.84 in ESE 1.0 mph 9.0 mph 70 % 0.00 in 0.00 W/m2
01:39 65.0 °F 54.6 °F 29.84 in East 8.0 mph 13.0 mph 69 % 0.00 in 0.00 W/m2
01:44 65.0 °F 54.6 °F 29.84 in East 7.0 mph 12.0 mph 69 % 0.00 in 0.00 W/m2
01:49 65.0 °F 54.6 °F 29.84 in ESE 7.0 mph 12.0 mph 69 % 0.00 in 0.00 W/m2
01:54 65.0 °F 54.6 °F 29.84 in East 4.0 mph 13.0 mph 69 % 0.00 in 0.00 W/m2
01:59 65.0 °F 54.2 °F 29.84 in East 5.0 mph 11.0 mph 68 % 0.00 in 0.00 W/m2
02:04 65.0 °F 54.2 °F 29.84 in ESE 4.0 mph 12.0 mph 68 % 0.00 in 0.00 W/m2
02:09 65.0 °F 54.2 °F 29.84 in ESE 6.0 mph 12.0 mph 68 % 0.00 in 0.00 W/m2
02:14 64.9 °F 54.1 °F 29.84 in East 4.0 mph 11.0 mph 68 % 0.00 in 0.00 W/m2
02:19 64.9 °F 54.1 °F 29.84 in East 4.0 mph 9.0 mph 68 % 0.00 in 0.00 W/m2
02:24 64.8 °F 54.0 °F 29.84 in Calm   9.0 mph 68 % 0.00 in 0.00 W/m2
02:29 64.7 °F 53.5 °F 29.84 in ESE 6.0 mph 9.0 mph 67 % 0.00 in 0.00 W/m2
02:34 64.7 °F 53.5 °F 29.84 in East 5.0 mph 8.0 mph 67 % 0.00 in 0.00 W/m2
02:39 64.7 °F 53.9 °F 29.84 in Calm   9.0 mph 68 % 0.00 in 0.00 W/m2
02:44 64.6 °F 53.4 °F 29.84 in East 1.0 mph 11.0 mph 67 % 0.00 in 0.00 W/m2
02:49 64.5 °F 52.9 °F 29.84 in East 6.0 mph 11.0 mph 66 % 0.00 in 0.00 W/m2
02:54 64.4 °F 52.8 °F 29.83 in Calm   11.0 mph 66 % 0.00 in 0.00 W/m2
02:59 64.3 °F 52.3 °F 29.83 in Calm   9.0 mph 65 % 0.00 in 0.00 W/m2
03:04 64.1 °F 52.1 °F 29.83 in Calm   11.0 mph 65 % 0.00 in 0.00 W/m2
03:07 64.1 °F 51.7 °F 29.84 in ESE 4.0 mph 11.0 mph 64 % 0.00 in 0.00 W/m2
03:12 64.0 °F 51.6 °F 29.84 in ESE 4.0 mph 11.0 mph 64 % 0.00 in 0.00 W/m2
03:17 63.9 °F 51.5 °F 29.83 in ESE 1.0 mph 12.0 mph 64 % 0.00 in 0.00 W/m2
03:22 63.8 °F 51.8 °F 29.83 in East 5.0 mph 12.0 mph 65 % 0.00 in 0.00 W/m2
03:27 63.8 °F 51.8 °F 29.84 in ESE 2.0 mph 12.0 mph 65 % 0.00 in 0.00 W/m2
03:32 63.7 °F 51.3 °F 29.84 in Calm   12.0 mph 64 % 0.00 in 0.00 W/m2
03:37 63.6 °F 51.2 °F 29.84 in East 5.0 mph 9.0 mph 64 % 0.00 in 0.00 W/m2
03:42 63.6 °F 51.2 °F 29.84 in ESE 7.0 mph 7.0 mph 64 % 0.00 in 0.00 W/m2
03:47 63.5 °F 50.7 °F 29.84 in East 1.0 mph 11.0 mph 63 % 0.00 in 0.00 W/m2
03:52 63.5 °F 50.7 °F 29.84 in East 5.0 mph 9.0 mph 63 % 0.00 in 0.00 W/m2
03:57 63.4 °F 50.6 °F 29.84 in East 9.0 mph 13.0 mph 63 % 0.00 in 0.00 W/m2
04:02 63.4 °F 50.2 °F 29.84 in Calm   13.0 mph 62 % 0.00 in 0.00 W/m2
04:07 63.3 °F 50.1 °F 29.84 in East 8.0 mph 12.0 mph 62 % 0.00 in 0.00 W/m2
04:12 63.2 °F 49.5 °F 29.84 in ESE 8.0 mph 13.0 mph 61 % 0.00 in 0.00 W/m2
04:17 63.2 °F 49.5 °F 29.84 in ESE 9.0 mph 9.0 mph 61 % 0.00 in 0.00 W/m2
04:22 63.1 °F 49.0 °F 29.84 in Calm   13.0 mph 60 % 0.00 in 0.00 W/m2
04:27 63.1 °F 49.5 °F 29.84 in Calm   7.0 mph 61 % 0.00 in 0.00 W/m2
04:32 63.0 °F 49.4 °F 29.84 in Calm   9.0 mph 61 % 0.00 in 0.00 W/m2
04:37 63.0 °F 49.4 °F 29.84 in Calm   12.0 mph 61 % 0.00 in 0.00 W/m2
04:42 62.9 °F 48.8 °F 29.84 in East 11.0 mph 11.0 mph 60 % 0.00 in 0.00 W/m2
04:48 62.9 °F 48.8 °F 29.84 in ESE 2.0 mph 9.0 mph 60 % 0.00 in 0.00 W/m2
04:53 62.9 °F 48.8 °F 29.84 in Calm   11.0 mph 60 % 0.00 in 0.00 W/m2
04:58 62.9 °F 48.4 °F 29.84 in Calm   7.0 mph 59 % 0.00 in 0.00 W/m2
05:03 62.9 °F 48.4 °F 29.84 in ESE 7.0 mph 13.0 mph 59 % 0.00 in 0.00 W/m2
05:08 62.9 °F 48.8 °F 29.84 in East 8.0 mph 12.0 mph 60 % 0.00 in 0.00 W/m2
05:13 62.9 °F 48.8 °F 29.84 in East 4.0 mph 6.0 mph 60 % 0.00 in 0.00 W/m2
05:18 62.8 °F 49.2 °F 29.84 in Calm   9.0 mph 61 % 0.00 in 0.00 W/m2
05:23 62.8 °F 49.2 °F 29.84 in ESE 7.0 mph 9.0 mph 61 % 0.00 in 0.00 W/m2
05:28 62.7 °F 49.1 °F 29.84 in ESE 9.0 mph 12.0 mph 61 % 0.00 in 0.00 W/m2
05:33 62.7 °F 49.1 °F 29.84 in Calm   14.0 mph 61 % 0.00 in 0.00 W/m2
05:38 62.6 °F 48.5 °F 29.84 in East 1.0 mph 9.0 mph 60 % 0.00 in 5.00 W/m2
05:43 62.6 °F 47.6 °F 29.84 in ESE 5.0 mph 12.0 mph 58 % 0.00 in 7.00 W/m2
05:48 62.6 °F 47.6 °F 29.84 in ESE 4.0 mph 12.0 mph 58 % 0.00 in 9.00 W/m2
05:53 62.6 °F 47.6 °F 29.84 in ESE 5.0 mph 13.0 mph 58 % 0.00 in 12.00 W/m2
05:58 62.6 °F 47.6 °F 29.84 in East 2.0 mph 11.0 mph 58 % 0.00 in 14.00 W/m2
06:03 62.6 °F 47.6 °F 29.84 in East 7.0 mph 12.0 mph 58 % 0.00 in 18.00 W/m2
06:08 62.5 °F 47.1 °F 29.84 in Calm   11.0 mph 57 % 0.00 in 21.00 W/m2
06:13 62.5 °F 46.6 °F 29.84 in Calm   9.0 mph 56 % 0.00 in 28.00 W/m2
06:18 62.5 °F 47.1 °F 29.84 in ESE 2.0 mph 9.0 mph 57 % 0.00 in 37.00 W/m2
06:23 62.5 °F 47.5 °F 29.84 in ESE 4.0 mph 9.0 mph 58 % 0.00 in 51.00 W/m2
06:28 62.5 °F 48.0 °F 29.84 in ESE 4.0 mph 11.0 mph 59 % 0.00 in 62.00 W/m2
06:33 62.4 °F 48.3 °F 29.84 in Calm   12.0 mph 60 % 0.00 in 70.00 W/m2
06:38 62.4 °F 48.8 °F 29.85 in Calm   9.0 mph 61 % 0.00 in 86.00 W/m2
06:43 62.3 °F 48.7 °F 29.85 in ESE 6.0 mph 8.0 mph 61 % 0.00 in 104.00 W/m2
06:48 62.3 °F 48.2 °F 29.85 in ESE 8.0 mph 12.0 mph 60 % 0.00 in 118.00 W/m2
06:53 62.2 °F 48.2 °F 29.85 in ESE 2.0 mph 8.0 mph 60 % 0.00 in 137.00 W/m2
06:58 62.2 °F 48.2 °F 29.85 in ESE 2.0 mph 8.0 mph 60 % 0.00 in 156.00 W/m2
07:03 62.1 °F 47.6 °F 29.85 in ESE 1.0 mph 8.0 mph 59 % 0.00 in 171.00 W/m2
07:08 62.1 °F 48.1 °F 29.85 in Calm   6.0 mph 60 % 0.00 in 181.00 W/m2
07:13 62.1 °F 48.5 °F 29.85 in Calm   7.0 mph 61 % 0.00 in 209.00 W/m2
07:18 62.1 °F 48.5 °F 29.85 in Calm   7.0 mph 61 % 0.00 in 229.00 W/m2
07:23 62.1 °F 48.9 °F 29.85 in East 4.0 mph 9.0 mph 62 % 0.00 in 250.00 W/m2
07:28 62.1 °F 49.8 °F 29.85 in Calm   6.0 mph 64 % 0.00 in 265.00 W/m2
07:33 62.1 °F 50.2 °F 29.85 in Calm   4.0 mph 65 % 0.00 in 283.00 W/m2
07:38 62.1 °F 50.6 °F 29.85 in Calm   2.0 mph 66 % 0.00 in 287.00 W/m2
07:43 62.0 °F 50.5 °F 29.85 in Calm     66 % 0.00 in 316.00 W/m2
07:48 62.0 °F 51.3 °F 29.86 in Calm   5.0 mph 68 % 0.00 in 336.00 W/m2
07:53 62.0 °F 51.7 °F 29.85 in East 2.0 mph 2.0 mph 69 % 0.00 in 350.00 W/m2
07:58 62.1 °F 51.8 °F 29.85 in Calm   6.0 mph 69 % 0.00 in 369.00 W/m2
08:01 62.2 °F 51.9 °F 29.85 in Calm     69 % 0.00 in 378.00 W/m2
08:06 62.2 °F 52.3 °F 29.85 in Calm     70 % 0.00 in 396.00 W/m2
08:11 62.4 °F 52.5 °F 29.85 in Calm     70 % 0.00 in 411.00 W/m2
08:16 62.5 °F 53.0 °F 29.85 in Calm     71 % 0.00 in 427.00 W/m2
08:21 62.6 °F 53.5 °F 29.85 in East 1.0 mph 5.0 mph 72 % 0.00 in 443.00 W/m2
08:26 62.9 °F 54.5 °F 29.85 in East 2.0 mph 7.0 mph 74 % 0.00 in 461.00 W/m2
08:31 63.1 °F 53.9 °F 29.85 in East 7.0 mph 8.0 mph 72 % 0.00 in 473.00 W/m2
08:36 63.4 °F 54.2 °F 29.85 in Calm   7.0 mph 72 % 0.00 in 489.00 W/m2
08:41 63.6 °F 53.3 °F 29.86 in Calm   4.0 mph 69 % 0.00 in 504.00 W/m2
08:46 63.9 °F 52.7 °F 29.86 in Calm     67 % 0.00 in 519.00 W/m2
08:51 64.2 °F 53.0 °F 29.86 in Calm     67 % 0.00 in 534.00 W/m2
08:56 64.4 °F 52.8 °F 29.86 in Calm     66 % 0.00 in 550.00 W/m2
09:02 64.7 °F 53.1 °F 29.86 in Calm     66 % 0.00 in 564.00 W/m2
09:07 65.0 °F 53.8 °F 29.86 in Calm     67 % 0.00 in 580.00 W/m2
09:12 65.2 °F 53.2 °F 29.86 in Calm     65 % 0.00 in 596.00 W/m2
09:17 65.5 °F 53.8 °F 29.86 in Calm     66 % 0.00 in 610.00 W/m2
09:22 65.7 °F 54.0 °F 29.86 in Calm     66 % 0.00 in 624.00 W/m2
09:27 65.9 °F 52.5 °F 29.86 in Calm     62 % 0.00 in 640.00 W/m2
09:37 67.0 °F 54.4 °F 29.86 in Calm   4.0 mph 64 % 0.00 in 664.00 W/m2
09:42 67.3 °F 53.0 °F 29.86 in Calm   4.0 mph 60 % 0.00 in 682.00 W/m2
09:47 67.6 °F 53.7 °F 29.86 in Calm     61 % 0.00 in 687.00 W/m2
09:52 68.0 °F 54.5 °F 29.86 in Calm   1.0 mph 62 % 0.00 in 698.00 W/m2
09:57 68.4 °F 54.0 °F 29.86 in Calm     60 % 0.00 in 710.00 W/m2
10:02 68.7 °F 54.3 °F 29.86 in Calm   5.0 mph 60 % 0.00 in 722.00 W/m2
10:07 69.0 °F 55.0 °F 29.86 in Calm     61 % 0.00 in 737.00 W/m2
10:12 69.4 °F 54.5 °F 29.86 in Calm     59 % 0.00 in 744.00 W/m2
10:17 69.8 °F 54.4 °F 29.86 in Calm   1.0 mph 58 % 0.00 in 759.00 W/m2
10:22 70.2 °F 54.8 °F 29.86 in Calm   4.0 mph 58 % 0.00 in 768.00 W/m2
10:27 70.6 °F 55.6 °F 29.86 in Calm   7.0 mph 59 % 0.00 in 784.00 W/m2
10:37 71.2 °F 55.2 °F 29.86 in SW 1.0 mph 3.0 mph 57 % 0.00 in 805.00 W/m2
10:38 71.3 °F 55.3 °F 29.86 in SW 2.0 mph 3.0 mph 57 % 0.00 in 805.00 W/m2
10:43 71.5 °F 55.5 °F 29.86 in Calm   3.0 mph 57 % 0.00 in 772.00 W/m2
10:48 71.6 °F 56.1 °F 29.86 in SW 2.0 mph 2.0 mph 58 % 0.00 in 828.00 W/m2
10:53 71.8 °F 56.2 °F 29.86 in Calm   5.0 mph 58 % 0.00 in 837.00 W/m2
10:58 72.0 °F 56.0 °F 29.86 in Calm     57 % 0.00 in 844.00 W/m2
11:03 72.2 °F 56.6 °F 29.86 in Calm     58 % 0.00 in 856.00 W/m2
11:08 72.3 °F 56.2 °F 29.86 in Calm   1.0 mph 57 % 0.00 in 863.00 W/m2
11:13 72.4 °F 55.8 °F 29.86 in Calm     56 % 0.00 in 875.00 W/m2
11:18 72.6 °F 55.0 °F 29.86 in Calm   4.0 mph 54 % 0.00 in 879.00 W/m2
11:23 72.8 °F 56.2 °F 29.86 in WSW 3.0 mph 6.0 mph 56 % 0.00 in 898.00 W/m2
11:28 73.1 °F 56.5 °F 29.86 in SW 4.0 mph 5.0 mph 56 % 0.00 in 905.00 W/m2
11:33 73.3 °F 54.6 °F 29.86 in WSW 2.0 mph 5.0 mph 52 % 0.00 in 895.00 W/m2
11:38 73.6 °F 55.4 °F 29.86 in West 2.0 mph 4.0 mph 53 % 0.00 in 902.00 W/m2
11:43 73.7 °F 55.5 °F 29.86 in Calm   1.0 mph 53 % 0.00 in 911.00 W/m2
11:48 73.8 °F 55.1 °F 29.86 in Calm   6.0 mph 52 % 0.00 in 925.00 W/m2
11:53 74.0 °F 51.9 °F 29.86 in Calm   6.0 mph 46 % 0.00 in 902.00 W/m2
11:58 74.2 °F 50.9 °F 29.86 in Calm   2.0 mph 44 % 0.00 in 925.00 W/m2
12:03 74.4 °F 49.2 °F 29.86 in WSW 4.0 mph 6.0 mph 41 % 0.00 in 935.00 W/m2
12:08 74.6 °F 53.6 °F 29.86 in South 3.0 mph 8.0 mph 48 % 0.00 in 940.00 W/m2
12:13 74.9 °F 57.2 °F 29.86 in SW 6.0 mph 7.0 mph 54 % 0.00 in 963.00 W/m2
12:18 75.3 °F 57.0 °F 29.86 in South 8.0 mph 8.0 mph 53 % 0.00 in 932.00 W/m2
12:23 75.7 °F 56.3 °F 29.86 in SW 4.0 mph 6.0 mph 51 % 0.00 in 912.00 W/m2
12:24 75.7 °F 56.3 °F 29.86 in SW 2.0 mph 6.0 mph 51 % 0.00 in 844.00 W/m2
12:29 76.2 °F 55.7 °F 29.86 in Calm   9.0 mph 49 % 0.00 in 830.00 W/m2
12:34 76.7 °F 56.1 °F 29.86 in SSW 3.0 mph 7.0 mph 49 % 0.00 in 914.00 W/m2
12:39 77.1 °F 55.3 °F 29.86 in Calm   8.0 mph 47 % 0.00 in 879.00 W/m2
12:44 77.0 °F 54.7 °F 29.86 in Calm   7.0 mph 46 % 0.00 in 1053.00 W/m2
12:49 77.0 °F 56.4 °F 29.86 in Calm   8.0 mph 49 % 0.00 in 826.00 W/m2
12:54 76.4 °F 55.8 °F 29.86 in Calm   7.0 mph 49 % 0.00 in 997.00 W/m2
12:59 75.8 °F 56.4 °F 29.86 in West 5.0 mph 7.0 mph 51 % 0.00 in 791.00 W/m2
13:04 75.6 °F 56.8 °F 29.86 in South 5.0 mph 7.0 mph 52 % 0.00 in 984.00 W/m2
13:09 75.8 °F 56.4 °F 29.86 in Calm   7.0 mph 51 % 0.00 in 1088.00 W/m2
13:14 76.3 °F 55.8 °F 29.86 in SW 5.0 mph 9.0 mph 49 % 0.00 in 988.00 W/m2
13:19 76.7 °F 52.5 °F 29.86 in South 6.0 mph 10.0 mph 43 % 0.00 in 622.00 W/m2
13:24 77.2 °F 54.8 °F 29.86 in SSW 4.0 mph 7.0 mph 46 % 0.00 in 930.00 W/m2
13:29 77.6 °F 54.6 °F 29.86 in Calm   4.0 mph 45 % 0.00 in 715.00 W/m2
13:34 77.8 °F 55.4 °F 29.86 in Calm   8.0 mph 46 % 0.00 in 582.00 W/m2
13:39 78.0 °F 55.0 °F 29.86 in Calm     45 % 0.00 in 476.00 W/m2
13:44 78.0 °F 55.6 °F 29.86 in Calm   5.0 mph 46 % 0.00 in 425.00 W/m2
13:49 77.7 °F 55.9 °F 29.86 in SW 4.0 mph 4.0 mph 47 % 0.00 in 454.00 W/m2
13:54 77.2 °F 56.0 °F 29.86 in SW 3.0 mph 8.0 mph 48 % 0.00 in 747.00 W/m2
14:04 76.0 °F 56.0 °F 29.86 in West 5.0 mph 9.0 mph 50 % 0.00 in 594.00 W/m2
14:09 75.6 °F 56.8 °F 29.86 in SW 4.0 mph 8.0 mph 52 % 0.00 in 566.00 W/m2
14:14 75.5 °F 56.7 °F 29.86 in WSW 3.0 mph 8.0 mph 52 % 0.00 in 673.00 W/m2
14:20 75.5 °F 56.7 °F 29.86 in WSW 3.0 mph 5.0 mph 52 % 0.00 in 617.00 W/m2
14:25 75.5 °F 55.0 °F 29.86 in SW 5.0 mph 8.0 mph 49 % 0.00 in 858.00 W/m2
14:30 75.4 °F 54.9 °F 29.86 in Calm   7.0 mph 49 % 0.00 in 512.00 W/m2
14:35 75.0 °F 54.6 °F 29.86 in SW 6.0 mph 9.0 mph 49 % 0.00 in 719.00 W/m2
14:40 75.0 °F 55.1 °F 29.86 in Calm   9.0 mph 50 % 0.00 in 1046.00 W/m2
14:45 75.1 °F 55.2 °F 29.85 in WSW 6.0 mph 8.0 mph 50 % 0.00 in 807.00 W/m2
14:50 75.1 °F 55.8 °F 29.85 in SW 6.0 mph 7.0 mph 51 % 0.00 in 858.00 W/m2
14:55 75.1 °F 54.7 °F 29.85 in Calm   5.0 mph 49 % 0.00 in 459.00 W/m2
15:00 75.0 °F 55.1 °F 29.85 in Calm   8.0 mph 50 % 0.00 in 733.00 W/m2
15:05 74.9 °F 53.3 °F 29.85 in Calm   4.0 mph 47 % 0.00 in 729.00 W/m2
15:10 74.8 °F 54.9 °F 29.85 in Calm   1.0 mph 50 % 0.00 in 744.00 W/m2
15:15 74.8 °F 52.7 °F 29.85 in Calm     46 % 0.00 in 793.00 W/m2
15:20 74.8 °F 53.8 °F 29.84 in Calm   8.0 mph 48 % 0.00 in 870.00 W/m2
15:25 75.0 °F 52.2 °F 29.84 in SSW 2.0 mph 10.0 mph 45 % 0.00 in 800.00 W/m2
15:30 75.1 °F 52.9 °F 29.84 in Calm   7.0 mph 46 % 0.00 in 348.00 W/m2
15:35 75.3 °F 53.1 °F 29.84 in SW 4.0 mph 6.0 mph 46 % 0.00 in 417.00 W/m2
15:40 75.3 °F 53.7 °F 29.84 in Calm   7.0 mph 47 % 0.00 in 327.00 W/m2
15:45 75.3 °F 54.3 °F 29.84 in Calm   4.0 mph 48 % 0.00 in 323.00 W/m2
15:50 75.3 °F 54.3 °F 29.84 in SSW 4.0 mph 8.0 mph 48 % 0.00 in 394.00 W/m2
15:55 75.2 °F 53.0 °F 29.84 in SSW 3.0 mph 9.0 mph 46 % 0.00 in 517.00 W/m2
16:00 75.1 °F 52.3 °F 29.84 in Calm   8.0 mph 45 % 0.00 in 473.00 W/m2
16:05 75.0 °F 52.2 °F 29.84 in South 8.0 mph 10.0 mph 45 % 0.00 in 571.00 W/m2
16:10 74.9 °F 49.6 °F 29.84 in SSW 1.0 mph 7.0 mph 41 % 0.00 in 461.00 W/m2
16:15 74.9 °F 50.3 °F 29.83 in Calm   4.0 mph 42 % 0.00 in 454.00 W/m2
16:20 74.8 °F 50.2 °F 29.83 in SW 6.0 mph 6.0 mph 42 % 0.00 in 436.00 W/m2
16:25 74.6 °F 50.7 °F 29.83 in Calm   8.0 mph 43 % 0.00 in 585.00 W/m2
16:30 74.4 °F 51.1 °F 29.83 in Calm   5.0 mph 44 % 0.00 in 258.00 W/m2
16:35 74.3 °F 51.6 °F 29.83 in Calm   8.0 mph 45 % 0.00 in 192.00 W/m2
16:40 74.2 °F 52.1 °F 29.83 in Calm   7.0 mph 46 % 0.00 in 199.00 W/m2
16:45 74.1 °F 53.2 °F 29.83 in Calm   5.0 mph 48 % 0.00 in 243.00 W/m2
16:50 73.9 °F 53.0 °F 29.83 in Calm   6.0 mph 48 % 0.00 in 285.00 W/m2
16:55 73.8 °F 52.9 °F 29.83 in Calm   8.0 mph 48 % 0.00 in 253.00 W/m2
17:00 73.7 °F 53.9 °F 29.83 in SW 5.0 mph 5.0 mph 50 % 0.00 in 225.00 W/m2
17:05 73.6 °F 55.4 °F 29.83 in WSW 3.0 mph 7.0 mph 53 % 0.00 in 241.00 W/m2
17:10 73.4 °F 56.3 °F 29.82 in Calm   4.0 mph 55 % 0.00 in 274.00 W/m2
17:15 73.3 °F 56.7 °F 29.82 in SW 5.0 mph 9.0 mph 56 % 0.00 in 243.00 W/m2
17:20 73.1 °F 57.0 °F 29.82 in Calm   9.0 mph 57 % 0.00 in 225.00 W/m2
17:25 72.7 °F 57.1 °F 29.82 in Calm   7.0 mph 58 % 0.00 in 207.00 W/m2
17:30 72.4 °F 56.8 °F 29.82 in WSW 2.0 mph 9.0 mph 58 % 0.00 in 192.00 W/m2
17:35 72.1 °F 56.5 °F 29.82 in SW 8.0 mph 10.0 mph 58 % 0.00 in 176.00 W/m2
17:40 71.9 °F 56.3 °F 29.82 in WSW 5.0 mph 11.0 mph 58 % 0.00 in 169.00 W/m2
17:45 71.8 °F 56.7 °F 29.82 in SW 8.0 mph 9.0 mph 59 % 0.00 in 176.00 W/m2
17:50 71.6 °F 56.5 °F 29.82 in Calm   8.0 mph 59 % 0.00 in 176.00 W/m2
17:55 71.5 °F 56.4 °F 29.83 in SW 7.0 mph 7.0 mph 59 % 0.00 in 169.00 W/m2
18:00 71.5 °F 56.4 °F 29.82 in Calm   8.0 mph 59 % 0.00 in 193.00 W/m2
18:05 71.3 °F 56.2 °F 29.82 in SW 2.0 mph 8.0 mph 59 % 0.00 in 193.00 W/m2
18:10 71.0 °F 56.4 °F 29.82 in Calm   9.0 mph 60 % 0.00 in 181.00 W/m2
18:15 70.8 °F 56.2 °F 29.83 in SSW 3.0 mph 9.0 mph 60 % 0.00 in 162.00 W/m2
18:20 70.4 °F 55.9 °F 29.83 in Calm   6.0 mph 60 % 0.00 in 155.00 W/m2
18:25 70.1 °F 56.0 °F 29.83 in Calm   4.0 mph 61 % 0.00 in 148.00 W/m2
18:30 69.9 °F 55.8 °F 29.83 in WSW 2.0 mph 8.0 mph 61 % 0.00 in 135.00 W/m2
18:35 69.6 °F 55.6 °F 29.83 in WSW 1.0 mph 7.0 mph 61 % 0.00 in 116.00 W/m2
18:40 69.3 °F 55.3 °F 29.83 in Calm   3.0 mph 61 % 0.00 in 91.00 W/m2
18:45 68.9 °F 55.4 °F 29.83 in WSW 3.0 mph 4.0 mph 62 % 0.00 in 77.00 W/m2
18:50 68.4 °F 55.3 °F 29.83 in Calm   4.0 mph 63 % 0.00 in 69.00 W/m2
18:56 68.1 °F 55.5 °F 29.83 in Calm     64 % 0.00 in 54.00 W/m2
19:01 67.9 °F 55.7 °F 29.83 in SSW 3.0 mph 6.0 mph 65 % 0.00 in 42.00 W/m2
19:06 67.7 °F 55.1 °F 29.83 in SSW 3.0 mph 3.0 mph 64 % 0.00 in 37.00 W/m2
19:11 67.6 °F 55.4 °F 29.83 in Calm   7.0 mph 65 % 0.00 in 33.00 W/m2
19:16 67.5 °F 55.3 °F 29.83 in Calm   5.0 mph 65 % 0.00 in 33.00 W/m2
19:21 67.4 °F 55.2 °F 29.83 in Calm   8.0 mph 65 % 0.00 in 32.00 W/m2
19:26 67.3 °F 55.2 °F 29.83 in Calm     65 % 0.00 in 32.00 W/m2
19:31 67.2 °F 55.0 °F 29.82 in SSE 6.0 mph 8.0 mph 65 % 0.00 in 30.00 W/m2
19:36 67.0 °F 54.9 °F 29.83 in SE 6.0 mph 8.0 mph 65 % 0.00 in 30.00 W/m2
19:41 66.9 °F 55.2 °F 29.83 in Calm   7.0 mph 66 % 0.00 in 26.00 W/m2
19:46 66.7 °F 55.0 °F 29.82 in Calm   4.0 mph 66 % 0.00 in 21.00 W/m2
19:51 66.6 °F 54.9 °F 29.82 in SE 2.0 mph 8.0 mph 66 % 0.00 in 16.00 W/m2
19:56 66.5 °F 54.8 °F 29.82 in SE 5.0 mph 5.0 mph 66 % 0.00 in 11.00 W/m2
20:01 66.3 °F 54.6 °F 29.83 in Calm   2.0 mph 66 % 0.00 in 9.00 W/m2
20:06 66.2 °F 54.9 °F 29.83 in SE 4.0 mph 4.0 mph 67 % 0.00 in 7.00 W/m2
20:11 66.0 °F 54.7 °F 29.82 in SE 5.0 mph 6.0 mph 67 % 0.00 in 5.00 W/m2
20:16 65.9 °F 54.7 °F 29.82 in SE 8.0 mph 9.0 mph 67 % 0.00 in 0.00 W/m2
20:21 65.8 °F 54.5 °F 29.82 in SE 6.0 mph 9.0 mph 67 % 0.00 in 0.00 W/m2
20:26 65.7 °F 54.9 °F 29.82 in SE 5.0 mph 6.0 mph 68 % 0.00 in 0.00 W/m2
20:31 65.5 °F 54.3 °F 29.82 in SE 4.0 mph 5.0 mph 67 % 0.00 in 0.00 W/m2
20:36 65.4 °F 54.6 °F 29.83 in Calm   5.0 mph 68 % 0.00 in 0.00 W/m2
20:41 65.3 °F 54.5 °F 29.82 in SE 5.0 mph 8.0 mph 68 % 0.00 in 0.00 W/m2
20:46 65.2 °F 54.8 °F 29.82 in SE 6.0 mph 6.0 mph 69 % 0.00 in 0.00 W/m2
20:51 65.1 °F 54.7 °F 29.82 in SE 4.0 mph 5.0 mph 69 % 0.00 in 0.00 W/m2
20:56 65.0 °F 54.6 °F 29.82 in SE 5.0 mph 5.0 mph 69 % 0.00 in 0.00 W/m2
21:01 64.9 °F 54.5 °F 29.83 in SE 1.0 mph 5.0 mph 69 % 0.00 in 0.00 W/m2
21:06 64.8 °F 54.4 °F 29.83 in SE 2.0 mph 6.0 mph 69 % 0.00 in 0.00 W/m2
21:11 64.7 °F 54.7 °F 29.82 in Calm     70 % 0.00 in 0.00 W/m2
21:16 64.5 °F 54.5 °F 29.83 in Calm     70 % 0.00 in 0.00 W/m2
21:21 64.5 °F 54.5 °F 29.83 in Calm     70 % 0.00 in 0.00 W/m2
21:26 64.4 °F 54.4 °F 29.83 in Calm     70 % 0.00 in 0.00 W/m2
21:31 64.2 °F 54.2 °F 29.83 in SE 7.0 mph 7.0 mph 70 % 0.00 in 0.00 W/m2
21:36 64.1 °F 54.5 °F 29.83 in SE 2.0 mph 5.0 mph 71 % 0.00 in 0.00 W/m2
21:41 63.9 °F 54.3 °F 29.83 in Calm     71 % 0.00 in 0.00 W/m2
21:46 63.8 °F 54.6 °F 29.83 in Calm     72 % 0.00 in 0.00 W/m2
21:51 63.6 °F 54.4 °F 29.83 in Calm     72 % 0.00 in 0.00 W/m2
21:56 63.5 °F 54.3 °F 29.83 in Calm     72 % 0.00 in 0.00 W/m2
22:01 63.3 °F 54.1 °F 29.83 in Calm   5.0 mph 72 % 0.00 in 0.00 W/m2
22:06 63.1 °F 53.9 °F 29.83 in Calm   1.0 mph 72 % 0.00 in 0.00 W/m2
22:11 63.0 °F 53.8 °F 29.83 in SE 2.0 mph 5.0 mph 72 % 0.00 in 0.00 W/m2
22:16 62.8 °F 54.0 °F 29.83 in SE 2.0 mph 6.0 mph 73 % 0.00 in 0.00 W/m2
22:21 62.7 °F 53.9 °F 29.83 in SE 6.0 mph 8.0 mph 73 % 0.00 in 0.00 W/m2
22:26 62.6 °F 53.8 °F 29.83 in SE 6.0 mph 6.0 mph 73 % 0.00 in 0.00 W/m2
22:31 62.4 °F 53.6 °F 29.83 in SE 1.0 mph 6.0 mph 73 % 0.00 in 0.00 W/m2
22:37 62.3 °F 53.9 °F 29.83 in SE 2.0 mph 7.0 mph 74 % 0.00 in 0.00 W/m2
22:42 62.3 °F 53.5 °F 29.83 in SE 2.0 mph 7.0 mph 73 % 0.00 in 0.00 W/m2
22:47 62.2 °F 53.8 °F 29.83 in Calm     74 % 0.00 in 0.00 W/m2
22:51 62.2 °F 53.8 °F 29.84 in South 5.0 mph 7.0 mph 74 % 0.00 in 0.00 W/m2
22:54 62.2 °F 53.5 °F 29.84 in SSW 2.0 mph 7.0 mph 73 % 0.00 in 0.00 W/m2
23:04 62.0 °F 53.3 °F 29.84 in South 9.0 mph 11.0 mph 73 % 0.00 in 0.00 W/m2
23:09 61.7 °F 53.0 °F 29.84 in South 6.0 mph 14.0 mph 73 % 0.00 in 0.00 W/m2
23:15 61.5 °F 52.0 °F 29.84 in SSE 8.0 mph 12.0 mph 71 % 0.00 in 0.00 W/m2
23:20 61.2 °F 50.2 °F 29.84 in SSE 8.0 mph 13.0 mph 67 % 0.00 in 0.00 W/m2
23:25 61.0 °F 50.0 °F 29.84 in SSE 5.0 mph 12.0 mph 67 % 0.00 in 0.00 W/m2
23:30 60.9 °F 49.9 °F 29.84 in South 9.0 mph 10.0 mph 67 % 0.00 in 0.00 W/m2
23:35 60.7 °F 49.7 °F 29.84 in South 1.0 mph 11.0 mph 67 % 0.00 in 0.00 W/m2
23:40 60.6 °F 49.6 °F 29.84 in SSE 1.0 mph 8.0 mph 67 % 0.00 in 0.00 W/m2
23:45 60.5 °F 49.9 °F 29.84 in SSE 7.0 mph 9.0 mph 68 % 0.00 in 0.00 W/m2
23:46 60.5 °F 49.9 °F 29.84 in SSE 2.0 mph 2.0 mph 68 % 0.00 in 0.00 W/m2
23:51 60.4 °F 49.8 °F 29.84 in SSE 2.0 mph 11.0 mph 68 % 0.00 in 0.00 W/m2
23:56 60.4 °F 49.8 °F 29.84 in SE 6.0 mph 8.0 mph 68 % 0.00 in 0.00 W/m2
Juneau County Weather
Compliments of Weather Underground - 4.5 mb
 WU-history PHP script courtesy of   Juneau County Weather.
powered by Cumulus v1.9.3 (1059)
Ambient Weather VWS v14.00
Top Contact Website Map Copyright © 2007 - 2018 Foresthillweather.com Never base important decisions on this or any weather information obtained from the Internet